sensor_id;sensor_type;location;lat;lon;timestamp;pressure;altitude;pressure_sealevel;temperature;humidity
43553;BME280;29153;42.696;23.218;2022-08-24T00:00:19;94269.88;;;18.32;100.00
43553;BME280;29153;42.696;23.218;2022-08-24T00:02:47;94269.88;;;18.32;100.00
43553;BME280;29153;42.696;23.218;2022-08-24T00:05:16;94269.51;;;18.22;100.00
43553;BME280;29153;42.696;23.218;2022-08-24T00:07:47;94269.51;;;18.22;100.00
43553;BME280;29153;42.696;23.218;2022-08-24T00:10:16;94262.33;;;18.19;100.00
43553;BME280;29153;42.696;23.218;2022-08-24T00:12:44;94269.45;;;18.15;100.00
43553;BME280;29153;42.696;23.218;2022-08-24T00:15:14;94279.73;;;18.13;100.00
43553;BME280;29153;42.696;23.218;2022-08-24T00:17:42;94270.23;;;17.95;100.00
43553;BME280;29153;42.696;23.218;2022-08-24T00:20:11;94268.34;;;17.96;100.00
43553;BME280;29153;42.696;23.218;2022-08-24T00:22:41;94269.20;;;17.94;100.00
43553;BME280;29153;42.696;23.218;2022-08-24T00:27:49;94277.35;;;17.77;100.00
43553;BME280;29153;42.696;23.218;2022-08-24T00:32:53;94278.98;;;17.69;100.00
43553;BME280;29153;42.696;23.218;2022-08-24T00:35:21;94281.79;;;17.72;100.00
43553;BME280;29153;42.696;23.218;2022-08-24T00:37:50;94288.31;;;17.78;100.00
43553;BME280;29153;42.696;23.218;2022-08-24T00:40:29;94293.12;;;17.78;100.00
43553;BME280;29153;42.696;23.218;2022-08-24T00:42:58;94284.53;;;17.79;100.00
43553;BME280;29153;42.696;23.218;2022-08-24T00:45:27;94253.59;;;17.52;100.00
43553;BME280;29153;42.696;23.218;2022-08-24T00:48:02;94290.17;;;17.71;100.00
43553;BME280;29153;42.696;23.218;2022-08-24T00:50:37;94286.15;;;17.71;100.00
43553;BME280;29153;42.696;23.218;2022-08-24T00:53:09;94284.81;;;17.71;100.00
43553;BME280;29153;42.696;23.218;2022-08-24T00:55:44;94293.40;;;17.70;100.00
43553;BME280;29153;42.696;23.218;2022-08-24T00:58:15;94289.01;;;17.66;100.00
43553;BME280;29153;42.696;23.218;2022-08-24T01:00:46;94276.11;;;17.51;100.00
43553;BME280;29153;42.696;23.218;2022-08-24T01:03:15;94289.98;;;17.61;100.00
43553;BME280;29153;42.696;23.218;2022-08-24T01:05:43;94293.86;;;17.58;100.00
43553;BME280;29153;42.696;23.218;2022-08-24T01:08:13;94291.46;;;17.56;100.00
43553;BME280;29153;42.696;23.218;2022-08-24T01:10:49;94294.00;;;17.53;100.00
43553;BME280;29153;42.696;23.218;2022-08-24T01:13:13;94290.53;;;17.52;100.00
43553;BME280;29153;42.696;23.218;2022-08-24T01:15:43;94291.09;;;17.52;100.00
43553;BME280;29153;42.696;23.218;2022-08-24T01:18:21;94292.73;;;17.50;100.00
43553;BME280;29153;42.696;23.218;2022-08-24T01:21:07;94297.64;;;17.48;100.00
43553;BME280;29153;42.696;23.218;2022-08-24T01:23:36;94298.84;;;17.45;100.00
43553;BME280;29153;42.696;23.218;2022-08-24T01:26:05;94307.12;;;17.37;100.00
43553;BME280;29153;42.696;23.218;2022-08-24T01:28:34;94310.93;;;17.36;100.00
43553;BME280;29153;42.696;23.218;2022-08-24T01:31:06;94313.13;;;17.34;100.00
43553;BME280;29153;42.696;23.218;2022-08-24T01:33:33;94316.31;;;17.27;100.00
43553;BME280;29153;42.696;23.218;2022-08-24T01:39:00;94323.17;;;17.22;100.00
43553;BME280;29153;42.696;23.218;2022-08-24T01:44:20;94321.95;;;17.11;100.00
43553;BME280;29153;42.696;23.218;2022-08-24T01:46:49;94330.21;;;17.04;100.00
43553;BME280;29153;42.696;23.218;2022-08-24T01:49:20;94330.21;;;17.04;100.00
43553;BME280;29153;42.696;23.218;2022-08-24T01:51:48;94327.53;;;17.04;100.00
43553;BME280;29153;42.696;23.218;2022-08-24T01:54:18;94327.39;;;17.00;100.00
43553;BME280;29153;42.696;23.218;2022-08-24T01:56:47;94320.65;;;16.94;100.00
43553;BME280;29153;42.696;23.218;2022-08-24T01:59:22;94317.73;;;16.93;100.00
43553;BME280;29153;42.696;23.218;2022-08-24T02:01:54;94314.73;;;16.86;100.00
43553;BME280;29153;42.696;23.218;2022-08-24T02:04:22;94313.80;;;16.82;100.00
43553;BME280;29153;42.696;23.218;2022-08-24T02:06:50;94324.99;;;16.75;100.00
43553;BME280;29153;42.696;23.218;2022-08-24T02:09:19;94330.65;;;16.74;100.00
43553;BME280;29153;42.696;23.218;2022-08-24T02:11:51;94339.16;;;16.76;100.00
43553;BME280;29153;42.696;23.218;2022-08-24T02:14:17;94340.73;;;16.77;100.00
43553;BME280;29153;42.696;23.218;2022-08-24T02:16:46;94343.41;;;16.86;100.00
43553;BME280;29153;42.696;23.218;2022-08-24T02:19:14;94341.66;;;16.90;100.00
43553;BME280;29153;42.696;23.218;2022-08-24T02:21:41;94350.70;;;16.91;100.00
43553;BME280;29153;42.696;23.218;2022-08-24T02:24:09;94352.44;;;16.87;100.00
43553;BME280;29153;42.696;23.218;2022-08-24T02:26:36;94351.58;;;16.89;100.00
43553;BME280;29153;42.696;23.218;2022-08-24T02:29:04;94355.05;;;16.90;100.00
43553;BME280;29153;42.696;23.218;2022-08-24T02:31:32;94352.28;;;16.92;100.00
43553;BME280;29153;42.696;23.218;2022-08-24T02:34:01;94348.75;;;16.94;100.00
43553;BME280;29153;42.696;23.218;2022-08-24T02:36:30;94359.36;;;16.97;100.00
43553;BME280;29153;42.696;23.218;2022-08-24T02:38:58;94356.92;;;16.98;100.00
43553;BME280;29153;42.696;23.218;2022-08-24T02:41:26;94361.72;;;16.98;100.00
43553;BME280;29153;42.696;23.218;2022-08-24T02:43:55;94361.33;;;17.02;100.00
43553;BME280;29153;42.696;23.218;2022-08-24T02:46:27;94366.44;;;17.01;100.00
43553;BME280;29153;42.696;23.218;2022-08-24T02:49:18;94361.33;;;17.02;100.00
43553;BME280;29153;42.696;23.218;2022-08-24T02:51:33;94373.03;;;17.04;100.00
43553;BME280;29153;42.696;23.218;2022-08-24T03:00:28;94372.80;;;17.11;100.00
43553;BME280;29153;42.696;23.218;2022-08-24T03:02:57;94374.05;;;17.14;100.00
43553;BME280;29153;42.696;23.218;2022-08-24T03:05:25;94332.69;;;16.94;100.00
43553;BME280;29153;42.696;23.218;2022-08-24T03:07:54;94372.22;;;17.20;100.00
43553;BME280;29153;42.696;23.218;2022-08-24T03:10:24;94372.86;;;17.17;100.00
43553;BME280;29153;42.696;23.218;2022-08-24T03:12:52;94373.10;;;17.18;100.00
43553;BME280;29153;42.696;23.218;2022-08-24T03:15:20;94367.27;;;17.16;100.00
43553;BME280;29153;42.696;23.218;2022-08-24T03:17:49;94375.08;;;17.15;100.00
43553;BME280;29153;42.696;23.218;2022-08-24T03:20:21;94374.60;;;17.13;100.00
43553;BME280;29153;42.696;23.218;2022-08-24T03:22:49;94373.52;;;16.97;100.00
43553;BME280;29153;42.696;23.218;2022-08-24T03:25:18;94327.73;;;16.73;100.00
43553;BME280;29153;42.696;23.218;2022-08-24T03:27:46;94374.21;;;17.09;100.00
43553;BME280;29153;42.696;23.218;2022-08-24T03:30:15;94368.86;;;17.09;100.00
43553;BME280;29153;42.696;23.218;2022-08-24T03:32:43;94373.97;;;17.08;100.00
43553;BME280;29153;42.696;23.218;2022-08-24T03:35:12;94368.63;;;16.99;100.00
43553;BME280;29153;42.696;23.218;2022-08-24T03:37:40;94378.23;;;17.00;100.00
43553;BME280;29153;42.696;23.218;2022-08-24T03:40:10;94383.44;;;16.97;100.00
43553;BME280;29153;42.696;23.218;2022-08-24T03:42:38;94382.34;;;16.98;100.00
43553;BME280;29153;42.696;23.218;2022-08-24T03:45:07;94384.30;;;16.95;100.00
43553;BME280;29153;42.696;23.218;2022-08-24T03:47:35;94388.64;;;16.93;100.00
43553;BME280;29153;42.696;23.218;2022-08-24T03:50:04;94376.12;;;16.91;100.00
43553;BME280;29153;42.696;23.218;2022-08-24T03:52:33;94382.34;;;16.89;100.00
43553;BME280;29153;42.696;23.218;2022-08-24T03:55:05;94382.34;;;16.89;100.00
43553;BME280;29153;42.696;23.218;2022-08-24T03:57:32;94382.11;;;16.88;100.00
43553;BME280;29153;42.696;23.218;2022-08-24T04:00:01;94384.54;;;16.87;100.00
43553;BME280;29153;42.696;23.218;2022-08-24T04:02:29;94381.63;;;16.86;100.00
43553;BME280;29153;42.696;23.218;2022-08-24T04:04:56;94385.42;;;16.85;100.00
43553;BME280;29153;42.696;23.218;2022-08-24T04:07:24;94387.45;;;16.88;100.00
43553;BME280;29153;42.696;23.218;2022-08-24T04:09:54;94384.48;;;16.90;100.00
43553;BME280;29153;42.696;23.218;2022-08-24T04:12:21;94385.48;;;16.91;100.00
43553;BME280;29153;42.696;23.218;2022-08-24T04:14:53;94383.75;;;16.95;100.00
43553;BME280;29153;42.696;23.218;2022-08-24T04:17:23;94387.15;;;16.98;100.00
43553;BME280;29153;42.696;23.218;2022-08-24T04:19:51;94392.80;;;17.05;100.00
43553;BME280;29153;42.696;23.218;2022-08-24T04:22:26;94392.40;;;17.09;100.00
43553;BME280;29153;42.696;23.218;2022-08-24T17:04:01;94305.64;;;22.24;75.71
43553;BME280;29153;42.696;23.218;2022-08-24T17:06:31;94308.83;;;22.30;76.66
43553;BME280;29153;42.696;23.218;2022-08-24T17:09:01;94322.69;;;22.28;76.01
43553;BME280;29153;42.696;23.218;2022-08-24T17:11:29;94332.14;;;22.28;77.83
43553;BME280;29153;42.696;23.218;2022-08-24T17:13:58;94347.02;;;22.22;77.70
43553;BME280;29153;42.696;23.218;2022-08-24T17:16:26;94349.95;;;22.23;78.67
43553;BME280;29153;42.696;23.218;2022-08-24T17:18:58;94348.52;;;22.19;78.82
43553;BME280;29153;42.696;23.218;2022-08-24T17:21:26;94359.72;;;22.12;78.49
43553;BME280;29153;42.696;23.218;2022-08-24T17:23:58;94349.61;;;22.09;79.34
43553;BME280;29153;42.696;23.218;2022-08-24T17:26:27;94353.35;;;22.04;80.49
43553;BME280;29153;42.696;23.218;2022-08-24T17:28:56;94354.36;;;22.06;81.34
43553;BME280;29153;42.696;23.218;2022-08-24T17:31:28;94355.19;;;22.00;81.89
43553;BME280;29153;42.696;23.218;2022-08-24T17:33:58;94364.77;;;21.98;81.91
43553;BME280;29153;42.696;23.218;2022-08-24T17:36:27;94372.22;;;21.89;82.82
43553;BME280;29153;42.696;23.218;2022-08-24T17:38:55;94361.84;;;21.91;83.75
43553;BME280;29153;42.696;23.218;2022-08-24T17:41:24;94359.74;;;21.90;84.44
43553;BME280;29153;42.696;23.218;2022-08-24T17:43:53;94365.98;;;21.78;83.40
43553;BME280;29153;42.696;23.218;2022-08-24T17:46:24;94366.13;;;21.76;84.32
43553;BME280;29153;42.696;23.218;2022-08-24T17:48:51;94380.95;;;21.76;84.94
43553;BME280;29153;42.696;23.218;2022-08-24T17:51:19;94389.45;;;21.62;83.33
43553;BME280;29153;42.696;23.218;2022-08-24T17:53:47;94385.41;;;21.62;84.47
43553;BME280;29153;42.696;23.218;2022-08-24T17:56:15;94381.14;;;21.61;85.05
43553;BME280;29153;42.696;23.218;2022-08-24T17:58:43;94389.84;;;21.55;85.86
43553;BME280;29153;42.696;23.218;2022-08-24T18:01:29;94387.17;;;21.49;86.25
43553;BME280;29153;42.696;23.218;2022-08-24T18:03:59;94388.91;;;21.35;86.44
43553;BME280;29153;42.696;23.218;2022-08-24T18:06:27;94400.30;;;21.28;87.17
43553;BME280;29153;42.696;23.218;2022-08-24T18:08:55;94410.66;;;21.20;87.69
43553;BME280;29153;42.696;23.218;2022-08-24T18:11:23;94405.39;;;21.12;87.82
43553;BME280;29153;42.696;23.218;2022-08-24T18:13:51;94404.50;;;21.08;88.31
43553;BME280;29153;42.696;23.218;2022-08-24T18:16:22;94409.47;;;21.00;88.48
43553;BME280;29153;42.696;23.218;2022-08-24T18:18:52;94418.91;;;20.94;89.05
43553;BME280;29153;42.696;23.218;2022-08-24T18:21:21;94423.44;;;20.83;89.39
43553;BME280;29153;42.696;23.218;2022-08-24T18:23:49;94410.56;;;20.71;90.15
43553;BME280;29153;42.696;23.218;2022-08-24T18:26:27;94416.04;;;20.68;90.65
43553;BME280;29153;42.696;23.218;2022-08-24T18:28:52;94422.44;;;20.64;90.76
43553;BME280;29153;42.696;23.218;2022-08-24T18:31:22;94409.33;;;20.56;91.48
43553;BME280;29153;42.696;23.218;2022-08-24T18:33:51;94421.01;;;20.48;91.65
43553;BME280;29153;42.696;23.218;2022-08-24T18:36:19;94421.46;;;20.44;92.07
43553;BME280;29153;42.696;23.218;2022-08-24T18:38:47;94428.97;;;20.38;92.72
43553;BME280;29153;42.696;23.218;2022-08-24T18:41:14;94426.40;;;20.36;92.84
43553;BME280;29153;42.696;23.218;2022-08-24T18:43:43;94430.16;;;20.29;92.89
43553;BME280;29153;42.696;23.218;2022-08-24T18:46:11;94426.12;;;20.17;93.10
43553;BME280;29153;42.696;23.218;2022-08-24T18:48:38;94435.55;;;20.17;93.58
43553;BME280;29153;42.696;23.218;2022-08-24T18:51:06;94428.25;;;20.11;93.66
43553;BME280;29153;42.696;23.218;2022-08-24T18:53:34;94429.03;;;20.12;93.91
43553;BME280;29153;42.696;23.218;2022-08-24T18:56:02;94430.27;;;20.08;93.87
43553;BME280;29153;42.696;23.218;2022-08-24T18:58:32;94431.95;;;20.00;94.00
43553;BME280;29153;42.696;23.218;2022-08-24T19:01:02;94438.65;;;19.94;93.95
43553;BME280;29153;42.696;23.218;2022-08-24T19:03:30;94442.92;;;19.89;94.38
43553;BME280;29153;42.696;23.218;2022-08-24T19:05:58;94449.50;;;19.86;94.96
43553;BME280;29153;42.696;23.218;2022-08-24T19:08:26;94427.27;;;19.65;95.02
43553;BME280;29153;42.696;23.218;2022-08-24T19:10:54;94462.83;;;19.82;95.02
43553;BME280;29153;42.696;23.218;2022-08-24T19:13:22;94469.31;;;19.75;95.15
43553;BME280;29153;42.696;23.218;2022-08-24T19:15:50;94470.08;;;19.70;95.78
43553;BME280;29153;42.696;23.218;2022-08-24T19:18:19;94469.95;;;19.66;95.65
43553;BME280;29153;42.696;23.218;2022-08-24T19:20:51;94468.73;;;19.64;95.96
43553;BME280;29153;42.696;23.218;2022-08-24T19:23:28;94471.94;;;19.57;96.06
43553;BME280;29153;42.696;23.218;2022-08-24T19:25:57;94471.62;;;19.38;96.47
43553;BME280;29153;42.696;23.218;2022-08-24T19:28:26;94483.28;;;19.42;96.66
43553;BME280;29153;42.696;23.218;2022-08-24T19:30:56;94483.28;;;19.42;96.96
43553;BME280;29153;42.696;23.218;2022-08-24T19:33:35;94479.88;;;19.33;97.34
43553;BME280;29153;42.696;23.218;2022-08-24T19:35:58;94482.56;;;19.33;97.05
43553;BME280;29153;42.696;23.218;2022-08-24T19:38:26;94479.41;;;19.31;97.12
43553;BME280;29153;42.696;23.218;2022-08-24T19:40:55;94485.09;;;19.23;97.38
43553;BME280;29153;42.696;23.218;2022-08-24T19:43:28;94488.27;;;19.10;97.86
43553;BME280;29153;42.696;23.218;2022-08-24T19:45:58;94481.99;;;19.13;97.99
43553;BME280;29153;42.696;23.218;2022-08-24T19:48:32;94482.78;;;19.13;98.04
43553;BME280;29153;42.696;23.218;2022-08-24T19:51:04;94485.88;;;19.03;98.01
43553;BME280;29153;42.696;23.218;2022-08-24T19:53:35;94487.22;;;19.03;98.42
43553;BME280;29153;42.696;23.218;2022-08-24T19:56:03;94476.24;;;19.02;98.13
43553;BME280;29153;42.696;23.218;2022-08-24T19:58:46;94480.31;;;18.73;99.77
43553;BME280;29153;42.696;23.218;2022-08-24T20:01:20;94474.29;;;18.76;100.00
43553;BME280;29153;42.696;23.218;2022-08-24T20:03:48;94474.29;;;18.76;100.00
43553;BME280;29153;42.696;23.218;2022-08-24T20:06:17;94468.60;;;18.77;100.00
43553;BME280;29153;42.696;23.218;2022-08-24T20:08:47;94468.60;;;18.77;100.00
43553;BME280;29153;42.696;23.218;2022-08-24T20:11:15;94461.47;;;18.81;99.48
43553;BME280;29153;42.696;23.218;2022-08-24T20:13:44;94463.62;;;18.88;99.42
43553;BME280;29153;42.696;23.218;2022-08-24T20:16:15;94455.08;;;18.80;99.01
43553;BME280;29153;42.696;23.218;2022-08-24T20:18:43;94455.08;;;18.80;99.01
43553;BME280;29153;42.696;23.218;2022-08-24T20:21:12;94450.92;;;18.76;99.06
43553;BME280;29153;42.696;23.218;2022-08-24T20:23:44;94444.77;;;18.76;99.06
43553;BME280;29153;42.696;23.218;2022-08-24T20:26:12;94441.30;;;18.75;99.09
43553;BME280;29153;42.696;23.218;2022-08-24T20:28:44;94443.95;;;18.69;98.94
43553;BME280;29153;42.696;23.218;2022-08-24T20:31:12;94443.95;;;18.69;98.94
43553;BME280;29153;42.696;23.218;2022-08-24T20:33:40;94450.88;;;18.70;98.94
43553;BME280;29153;42.696;23.218;2022-08-24T20:36:25;94445.37;;;18.67;98.82
43553;BME280;29153;42.696;23.218;2022-08-24T20:38:55;94440.85;;;18.58;98.44
43553;BME280;29153;42.696;23.218;2022-08-24T20:41:23;94438.48;;;18.57;98.60
43553;BME280;29153;42.696;23.218;2022-08-24T20:43:53;94432.83;;;18.50;99.02
43553;BME280;29153;42.696;23.218;2022-08-24T20:46:21;94427.88;;;18.46;99.11
43553;BME280;29153;42.696;23.218;2022-08-24T20:48:50;94424.19;;;18.30;100.00
43553;BME280;29153;42.696;23.218;2022-08-24T20:51:18;94420.30;;;18.33;100.00
43553;BME280;29153;42.696;23.218;2022-08-24T20:53:46;94425.56;;;18.36;99.99
43553;BME280;29153;42.696;23.218;2022-08-24T20:56:33;94427.48;;;18.35;99.93
43553;BME280;29153;42.696;23.218;2022-08-24T20:59:07;94434.81;;;18.32;99.67
43553;BME280;29153;42.696;23.218;2022-08-24T21:01:35;94434.78;;;18.26;100.00
43553;BME280;29153;42.696;23.218;2022-08-24T21:04:03;94430.05;;;18.23;100.00
43553;BME280;29153;42.696;23.218;2022-08-24T21:06:31;94427.70;;;18.22;100.00
43553;BME280;29153;42.696;23.218;2022-08-24T21:09:00;94433.34;;;18.14;100.00
43553;BME280;29153;42.696;23.218;2022-08-24T21:11:27;94432.55;;;18.13;100.00
43553;BME280;29153;42.696;23.218;2022-08-24T21:13:55;94436.58;;;18.13;100.00
43553;BME280;29153;42.696;23.218;2022-08-24T21:16:23;94435.69;;;18.01;100.00
43553;BME280;29153;42.696;23.218;2022-08-24T21:18:51;94441.59;;;18.00;100.00
43553;BME280;29153;42.696;23.218;2022-08-24T21:21:19;94441.59;;;18.00;100.00
43553;BME280;29153;42.696;23.218;2022-08-24T21:23:46;94444.91;;;17.97;100.00
43553;BME280;29153;42.696;23.218;2022-08-24T21:26:15;94445.48;;;17.97;100.00
43553;BME280;29153;42.696;23.218;2022-08-24T21:28:47;94445.69;;;17.98;100.00
43553;BME280;29153;42.696;23.218;2022-08-24T21:31:15;94442.48;;;17.90;100.00
43553;BME280;29153;42.696;23.218;2022-08-24T21:33:43;94442.97;;;17.92;100.00
43553;BME280;29153;42.696;23.218;2022-08-24T21:36:30;94450.19;;;18.00;100.00
43553;BME280;29153;42.696;23.218;2022-08-24T21:38:58;94449.91;;;17.84;100.00
43553;BME280;29153;42.696;23.218;2022-08-24T21:41:25;94453.55;;;17.88;100.00
43553;BME280;29153;42.696;23.218;2022-08-24T21:43:56;94451.46;;;17.94;100.00
43553;BME280;29153;42.696;23.218;2022-08-24T21:46:29;94446.52;;;17.90;100.00
43553;BME280;29153;42.696;23.218;2022-08-24T21:48:54;94448.88;;;17.91;100.00
43553;BME280;29153;42.696;23.218;2022-08-24T21:51:22;94463.62;;;17.91;100.00
43553;BME280;29153;42.696;23.218;2022-08-24T21:53:50;94454.14;;;17.94;100.00
43553;BME280;29153;42.696;23.218;2022-08-24T21:56:22;94458.57;;;17.90;100.00
43553;BME280;29153;42.696;23.218;2022-08-24T21:58:51;94451.83;;;17.84;100.00
43553;BME280;29153;42.696;23.218;2022-08-24T22:01:19;94455.99;;;17.87;100.00
43553;BME280;29153;42.696;23.218;2022-08-24T22:03:46;94458.59;;;17.81;100.00
43553;BME280;29153;42.696;23.218;2022-08-24T22:06:14;94455.92;;;17.81;100.00
43553;BME280;29153;42.696;23.218;2022-08-24T22:08:42;94452.83;;;17.85;100.00
43553;BME280;29153;42.696;23.218;2022-08-24T22:11:12;94455.92;;;17.81;100.00
43553;BME280;29153;42.696;23.218;2022-08-24T22:13:40;94456.61;;;17.84;100.00
43553;BME280;29153;42.696;23.218;2022-08-24T22:16:08;94457.80;;;17.81;100.00
43553;BME280;29153;42.696;23.218;2022-08-24T22:18:37;94460.97;;;17.83;100.00
43553;BME280;29153;42.696;23.218;2022-08-24T22:21:08;94456.47;;;17.81;100.00
43553;BME280;29153;42.696;23.218;2022-08-24T22:23:36;94448.41;;;17.66;100.00
43553;BME280;29153;42.696;23.218;2022-08-24T22:26:04;94439.80;;;17.75;100.00
43553;BME280;29153;42.696;23.218;2022-08-24T22:28:37;94427.26;;;17.73;100.00
43553;BME280;29153;42.696;23.218;2022-08-24T22:31:20;94424.07;;;17.48;100.00
43553;BME280;29153;42.696;23.218;2022-08-24T22:33:47;94419.23;;;17.56;100.00
43553;BME280;29153;42.696;23.218;2022-08-24T22:36:15;94415.95;;;17.59;100.00
43553;BME280;29153;42.696;23.218;2022-08-24T22:38:45;94413.58;;;17.57;100.00
43553;BME280;29153;42.696;23.218;2022-08-24T22:41:13;94414.13;;;17.57;100.00
43553;BME280;29153;42.696;23.218;2022-08-24T22:43:41;94404.13;;;17.60;100.00
43553;BME280;29153;42.696;23.218;2022-08-24T22:46:27;94397.77;;;17.58;100.00
43553;BME280;29153;42.696;23.218;2022-08-24T22:48:55;94399.94;;;17.56;100.00
43553;BME280;29153;42.696;23.218;2022-08-24T22:51:22;94392.97;;;17.58;100.00
43553;BME280;29153;42.696;23.218;2022-08-24T22:53:51;94395.44;;;17.54;100.00
43553;BME280;29153;42.696;23.218;2022-08-24T22:56:29;94386.00;;;17.57;100.00
43553;BME280;29153;42.696;23.218;2022-08-24T22:58:52;94377.82;;;17.53;100.00
43553;BME280;29153;42.696;23.218;2022-08-24T23:01:30;94378.13;;;17.52;100.00
43553;BME280;29153;42.696;23.218;2022-08-24T23:03:59;94378.38;;;17.53;100.00
43553;BME280;29153;42.696;23.218;2022-08-24T23:06:27;94381.45;;;17.49;100.00
43553;BME280;29153;42.696;23.218;2022-08-24T23:08:55;94371.84;;;17.48;100.00
43553;BME280;29153;42.696;23.218;2022-08-24T23:11:23;94374.38;;;17.44;100.00
43553;BME280;29153;42.696;23.218;2022-08-24T23:13:57;94367.13;;;17.45;100.00
43553;BME280;29153;42.696;23.218;2022-08-24T23:16:27;94363.91;;;17.45;100.00
43553;BME280;29153;42.696;23.218;2022-08-24T23:18:59;94366.20;;;17.41;100.00
43553;BME280;29153;42.696;23.218;2022-08-24T23:21:45;94363.28;;;17.40;100.00
43553;BME280;29153;42.696;23.218;2022-08-24T23:24:13;94358.58;;;17.37;100.00
43553;BME280;29153;42.696;23.218;2022-08-24T23:26:41;94363.14;;;17.36;100.00
43553;BME280;29153;42.696;23.218;2022-08-24T23:29:10;94359.91;;;17.37;100.00
43553;BME280;29153;42.696;23.218;2022-08-24T23:31:40;94365.03;;;17.36;100.00
43553;BME280;29153;42.696;23.218;2022-08-24T23:34:08;94364.89;;;17.32;100.00
43553;BME280;29153;42.696;23.218;2022-08-24T23:36:36;94361.66;;;17.33;100.00
43553;BME280;29153;42.696;23.218;2022-08-24T23:39:06;94369.91;;;17.34;100.00
43553;BME280;29153;42.696;23.218;2022-08-24T23:41:36;94361.42;;;17.32;100.00
43553;BME280;29153;42.696;23.218;2022-08-24T23:44:07;94357.64;;;17.33;100.00
43553;BME280;29153;42.696;23.218;2022-08-24T23:46:35;94364.16;;;17.29;100.00
43553;BME280;29153;42.696;23.218;2022-08-24T23:49:04;94366.94;;;17.26;100.00
43553;BME280;29153;42.696;23.218;2022-08-24T23:51:33;94366.39;;;17.27;100.00
43553;BME280;29153;42.696;23.218;2022-08-24T23:54:02;94368.73;;;17.28;100.00
43553;BME280;29153;42.696;23.218;2022-08-24T23:56:33;94370.31;;;17.29;100.00
43553;BME280;29153;42.696;23.218;2022-08-24T23:59:03;94366.70;;;17.25;100.00
